KALN/ALN METAR and TAF weather

Enter ICAO airport designator
Station Type Date Time Source
KALN METAR 2019/04/25 01:50 UTC NOAA

KALN 250150Z 00000KT 3SM BR OVC008 15/15 A2986


Station Type Date Time Source
KALN Decoded METAR 2019/04/25 01:50 UTC NOAA

Alton/St. Louis, St. Louis Regional Airport, IL, United States (KALN) 38-54N 090-03W
Apr 24, 2019 - 09:50 PM EDT / 2019.04.25 0150 UTC
Wind: Calm:0
Visibility: 3 mile(s):0
Sky conditions: overcast
Weather: mist
Temperature: 59 F (15 C)
Dew Point: 59 F (15 C)
Relative Humidity: 100%
Pressure (altimeter): 29.86 in. Hg (1011 hPa)
ob: KALN 250150Z 00000KT 3SM BR OVC008 15/15 A2986
cycle: 2

Station Type Date Time Source
KALN TAF UTC NOAA

Error!

Example: see airport list